createdAt,value
2023-03-06T00:00:58.015Z,100439.72
2023-03-06T00:03:27.887Z,100451.66
2023-03-06T00:05:57.236Z,100448.22
2023-03-06T00:08:27.873Z,100453.34
2023-03-06T00:10:56.187Z,100445.66
2023-03-06T00:13:24.121Z,100443.06
2023-03-06T00:15:51.864Z,100440.56
2023-03-06T00:18:19.642Z,100448.25
2023-03-06T00:20:47.320Z,100437.16
2023-03-06T00:23:15.183Z,100438.03
2023-03-06T00:25:45.519Z,100452.53
2023-03-06T00:28:14.872Z,100453.38
2023-03-06T00:30:43.396Z,100426.03
2023-03-06T00:33:11.315Z,100448.25
2023-03-06T00:35:40.541Z,100423.50
2023-03-06T00:38:08.660Z,100456.81
2023-03-06T00:40:36.374Z,100455.97
2023-03-06T00:43:05.420Z,100447.41
2023-03-06T00:45:33.136Z,100468.78
2023-03-06T00:48:00.933Z,100464.50
2023-03-06T00:50:28.755Z,100455.13
2023-03-06T00:52:56.984Z,100464.53
2023-03-06T00:55:24.655Z,100461.94
2023-03-06T00:57:55.142Z,100431.19
2023-03-06T01:00:25.034Z,100458.50
2023-03-06T01:02:53.665Z,100450.00
2023-03-06T01:05:21.808Z,100459.38
2023-03-06T01:07:49.815Z,100450.81
2023-03-06T01:10:17.790Z,100448.25
2023-03-06T01:12:46.746Z,100449.97
2023-03-06T01:15:15.045Z,100442.28
2023-03-06T01:17:44.122Z,100436.28
2023-03-06T01:20:15.080Z,100438.84
2023-03-06T01:22:43.270Z,100437.16
2023-03-06T01:25:11.497Z,100436.28
2023-03-06T01:27:39.587Z,100435.44
2023-03-06T01:30:08.574Z,100426.94
2023-03-06T01:32:37.564Z,100428.63
2023-03-06T01:35:08.223Z,100427.81
2023-03-06T01:37:36.887Z,100432.88
2023-03-06T01:40:04.917Z,100433.75
2023-03-06T01:42:32.647Z,100423.47
2023-03-06T01:45:06.534Z,100419.19
2023-03-06T01:47:36.685Z,100408.97
2023-03-06T01:50:08.081Z,100407.28
2023-03-06T01:52:39.770Z,100414.09
2023-03-06T01:55:10.987Z,100402.13
2023-03-06T01:57:41.902Z,100402.16
2023-03-06T02:00:13.921Z,100404.72
2023-03-06T02:02:45.037Z,100409.81
2023-03-06T02:05:14.532Z,100406.41
2023-03-06T02:07:43.649Z,100394.47
2023-03-06T02:10:12.152Z,100408.97
2023-03-06T02:12:43.640Z,100397.00
2023-03-06T02:15:12.268Z,100395.31
2023-03-06T02:17:40.682Z,100396.16
2023-03-06T02:20:13.656Z,100396.16
2023-03-06T02:22:53.935Z,100402.13
2023-03-06T02:25:34.316Z,100403.84
2023-03-06T02:28:02.512Z,100401.25
2023-03-06T02:30:31.457Z,100402.97
2023-03-06T02:32:59.626Z,100389.31
2023-03-06T02:35:30.168Z,100390.19
2023-03-06T02:38:00.170Z,100396.97
2023-03-06T02:40:30.293Z,100389.28
2023-03-06T02:42:59.522Z,100386.75
2023-03-06T02:45:33.285Z,100388.44
2023-03-06T02:48:01.329Z,100391.84
2023-03-06T02:50:29.066Z,100383.31
2023-03-06T02:52:56.925Z,100383.31
2023-03-06T02:55:24.727Z,100381.59
2023-03-06T02:57:53.770Z,100365.34
2023-03-06T03:00:21.823Z,100379.91
2023-03-06T03:02:49.950Z,100365.41
2023-03-06T03:05:17.716Z,100315.88
2023-03-06T03:07:45.537Z,100373.06
2023-03-06T03:10:14.286Z,100364.59
2023-03-06T03:12:42.832Z,100356.91
2023-03-06T03:15:12.658Z,100356.91
2023-03-06T03:17:41.932Z,100358.63
2023-03-06T03:20:13.940Z,100344.13
2023-03-06T03:22:41.778Z,100347.53
2023-03-06T03:25:10.423Z,100333.84
2023-03-06T03:27:38.145Z,100339.84
2023-03-06T03:30:06.963Z,100327.03
2023-03-06T03:32:36.130Z,100339.84
2023-03-06T03:35:04.411Z,100333.84
2023-03-06T03:37:32.192Z,100321.06
2023-03-06T03:40:00.363Z,100324.47
2023-03-06T03:42:28.097Z,100320.19
2023-03-06T03:45:05.412Z,100296.31
2023-03-06T03:47:33.148Z,100315.97
2023-03-06T03:50:02.212Z,100313.41
2023-03-06T03:52:29.946Z,100310.81
2023-03-06T03:54:58.113Z,100309.09
2023-03-06T03:57:25.907Z,100303.13
2023-03-06T03:59:53.785Z,100305.69
2023-03-06T04:02:22.619Z,100310.81
2023-03-06T04:04:50.907Z,100276.66
2023-03-06T04:07:20.244Z,100300.56
2023-03-06T04:09:49.158Z,100294.59
2023-03-06T04:12:16.836Z,100306.56
2023-03-06T04:14:44.574Z,100304.81
2023-03-06T04:17:12.230Z,100301.41
2023-03-06T04:19:39.978Z,100302.25
2023-03-06T04:22:07.680Z,100296.31
2023-03-06T04:24:36.799Z,100296.28
2023-03-06T04:27:04.607Z,100290.31
2023-03-06T04:29:32.766Z,100285.19
2023-03-06T04:32:00.599Z,100285.19
2023-03-06T04:34:28.304Z,100276.66
2023-03-06T04:36:56.051Z,100276.69
2023-03-06T04:39:23.739Z,100284.34
2023-03-06T04:41:53.161Z,100273.28
2023-03-06T04:44:21.428Z,100270.72
2023-03-06T04:46:49.457Z,100272.44
2023-03-06T04:49:17.152Z,100275.00
2023-03-06T04:51:45.230Z,100257.91
2023-03-06T04:54:13.257Z,100264.75
2023-03-06T04:56:41.126Z,100269.00
2023-03-06T04:59:10.335Z,100269.00
2023-03-06T05:01:38.352Z,100267.34
2023-03-06T05:04:08.181Z,100269.88
2023-03-06T05:06:35.865Z,100271.56
2023-03-06T05:09:03.567Z,100268.19
2023-03-06T05:11:31.483Z,100258.78
2023-03-06T05:13:59.491Z,100257.09
2023-03-06T05:16:28.696Z,100263.91
2023-03-06T05:18:56.459Z,100269.03
2023-03-06T05:21:24.236Z,100251.13
2023-03-06T05:23:51.892Z,100257.94
2023-03-06T05:26:19.956Z,100265.63
2023-03-06T05:28:47.711Z,100261.34
2023-03-06T05:31:15.509Z,100273.28
2023-03-06T05:33:47.110Z,100269.88
2023-03-06T05:36:14.786Z,100274.16
2023-03-06T05:38:43.764Z,100273.28
2023-03-06T05:41:12.871Z,100265.59
2023-03-06T05:43:40.666Z,100267.31
2023-03-06T05:46:09.462Z,100262.22
2023-03-06T05:48:37.512Z,100260.50
2023-03-06T05:51:07.550Z,100257.94
2023-03-06T05:53:35.234Z,100253.69
2023-03-06T05:56:05.638Z,100247.66
2023-03-06T05:58:34.725Z,100261.34
2023-03-06T06:01:10.119Z,100253.66
2023-03-06T06:03:38.527Z,100248.53
2023-03-06T06:06:12.071Z,100262.22
2023-03-06T06:08:40.501Z,100254.50
2023-03-06T06:11:09.832Z,100253.66
2023-03-06T06:13:38.206Z,100238.22
2023-03-06T06:16:09.848Z,100252.78
2023-03-06T06:18:40.626Z,100251.97
2023-03-06T06:21:12.494Z,100257.06
2023-03-06T06:23:40.222Z,100252.78
2023-03-06T06:26:09.763Z,100257.94
2023-03-06T06:28:37.598Z,100257.09
2023-03-06T06:31:09.939Z,100262.22
2023-03-06T06:33:37.782Z,100250.25
2023-03-06T06:36:06.181Z,100231.50
2023-03-06T06:38:35.545Z,100196.50
2023-03-06T06:41:33.484Z,100244.28
2023-03-06T06:43:52.431Z,100262.19
2023-03-06T06:47:02.656Z,100263.88
2023-03-06T06:49:08.610Z,100244.19
2023-03-06T06:51:37.423Z,100249.34
2023-03-06T06:54:06.744Z,100220.38
2023-03-06T06:56:34.482Z,100246.78
2023-03-06T06:59:16.010Z,100234.88
2023-03-06T07:01:45.012Z,100222.91
2023-03-06T07:04:13.777Z,100254.47
2023-03-06T07:06:41.810Z,100263.88
2023-03-06T07:09:11.207Z,100254.53
2023-03-06T07:11:39.014Z,100253.66
2023-03-06T07:14:06.936Z,100263.03
2023-03-06T07:16:35.988Z,100257.03
2023-03-06T07:19:04.427Z,100268.13
2023-03-06T07:21:32.571Z,100260.44
2023-03-06T07:24:00.812Z,100261.28
2023-03-06T07:26:32.782Z,100250.25
2023-03-06T07:29:05.386Z,100258.72
2023-03-06T07:31:33.357Z,100250.25
2023-03-06T07:34:03.859Z,100265.56
2023-03-06T07:36:33.428Z,100270.59
2023-03-06T07:39:01.505Z,100263.84
2023-03-06T07:41:30.706Z,100276.59
2023-03-06T07:43:58.653Z,100270.69
2023-03-06T07:46:27.414Z,100279.19
2023-03-06T07:48:55.409Z,100274.06
2023-03-06T07:51:23.403Z,100267.16
2023-03-06T07:53:51.289Z,100245.06
2023-03-06T07:59:16.014Z,100264.94
2023-03-06T08:01:43.948Z,100250.84
2023-03-06T08:04:11.889Z,100246.56
2023-03-06T08:06:39.709Z,100243.16
2023-03-06T08:09:09.870Z,100242.94
2023-03-06T08:11:37.649Z,100236.84
2023-03-06T08:14:05.945Z,100240.28
2023-03-06T08:16:35.153Z,100221.38
2023-03-06T08:19:02.980Z,100223.41
2023-03-06T08:21:31.035Z,100216.75
2023-03-06T08:23:59.125Z,100222.72
2023-03-06T08:26:28.972Z,100225.31
2023-03-06T08:28:58.889Z,100230.88
2023-03-06T08:31:32.762Z,100229.78
2023-03-06T08:34:05.153Z,100231.16
2023-03-06T08:36:33.135Z,100228.22
2023-03-06T08:39:01.288Z,100221.03
2023-03-06T08:41:29.413Z,100227.22
2023-03-06T08:43:57.206Z,100221.47
2023-03-06T08:46:26.956Z,100217.47
2023-03-06T08:48:54.758Z,100231.50
2023-03-06T08:51:24.684Z,100237.13
2023-03-06T08:53:53.525Z,100245.94
2023-03-06T08:56:23.111Z,100250.75
2023-03-06T08:58:51.633Z,100248.28
2023-03-06T09:01:22.463Z,100256.00
2023-03-06T09:03:50.693Z,100272.31
2023-03-06T09:06:18.596Z,100270.06
2023-03-06T09:08:47.698Z,100271.97
2023-03-06T09:11:16.765Z,100268.34
2023-03-06T09:13:45.098Z,100279.50
2023-03-06T09:16:13.345Z,100283.13
2023-03-06T09:18:43.666Z,100284.09
2023-03-06T09:21:11.612Z,100258.25
2023-03-06T09:23:40.448Z,100279.69
2023-03-06T09:26:09.792Z,100236.19
2023-03-06T09:28:39.214Z,100280.72
2023-03-06T09:31:09.598Z,100295.47
2023-03-06T09:33:37.888Z,100292.66
2023-03-06T09:36:07.410Z,100259.44
2023-03-06T09:38:36.211Z,100285.78
2023-03-06T09:41:11.468Z,100294.47
2023-03-06T09:43:44.853Z,100267.16
2023-03-06T09:46:21.366Z,100295.38
2023-03-06T09:49:04.515Z,100298.63
2023-03-06T09:51:46.164Z,100294.75
2023-03-06T09:54:15.149Z,100286.22
2023-03-06T09:56:48.889Z,100271.31
2023-03-06T09:59:21.657Z,100288.59
2023-03-06T10:02:00.054Z,100291.44
2023-03-06T10:04:37.239Z,100281.75
2023-03-06T10:07:14.408Z,100275.75
2023-03-06T10:09:47.792Z,100288.22
2023-03-06T10:12:24.779Z,100276.13
2023-03-06T10:15:14.970Z,100285.53
2023-03-06T10:17:44.428Z,100277.91
2023-03-06T10:20:20.807Z,100269.38
2023-03-06T10:23:20.798Z,100273.00
2023-03-06T10:25:58.159Z,100279.84
2023-03-06T10:28:30.801Z,100266.63
2023-03-06T10:31:06.992Z,100263.50
2023-03-06T10:33:48.079Z,100269.56
2023-03-06T10:36:17.458Z,100276.53
2023-03-06T10:38:48.492Z,100239.88
2023-03-06T10:41:26.059Z,100271.63
2023-03-06T10:44:20.001Z,100260.16
2023-03-06T10:46:51.602Z,100251.09
2023-03-06T10:49:32.688Z,100202.53
2023-03-06T10:52:03.392Z,100250.97
2023-03-06T10:54:33.387Z,100243.22
2023-03-06T10:57:19.756Z,100250.63
2023-03-06T10:59:55.474Z,100243.97
2023-03-06T11:02:31.706Z,100246.13
2023-03-06T11:05:01.036Z,100236.47
2023-03-06T11:07:30.160Z,100250.00
2023-03-06T11:10:18.471Z,100259.91
2023-03-06T11:12:59.642Z,100249.03
2023-03-06T11:15:28.489Z,100237.69
2023-03-06T11:18:00.374Z,100248.13
2023-03-06T11:20:44.627Z,100250.47
2023-03-06T11:23:18.939Z,100187.94
2023-03-06T11:25:50.343Z,100237.50
2023-03-06T11:28:23.935Z,100238.59
2023-03-06T11:30:55.535Z,100223.69
2023-03-06T11:33:31.526Z,100217.63
2023-03-06T11:36:05.030Z,100210.47
2023-03-06T11:38:43.166Z,100211.56
2023-03-06T11:41:20.178Z,100218.03
2023-03-06T11:43:54.293Z,100219.38
2023-03-06T11:46:24.898Z,100214.50
2023-03-06T11:48:59.303Z,100198.44
2023-03-06T11:51:31.324Z,100203.97
2023-03-06T11:54:00.855Z,100205.28
2023-03-06T11:56:36.698Z,100192.69
2023-03-06T11:59:26.314Z,100186.00
2023-03-06T12:02:01.185Z,100191.19
2023-03-06T12:04:42.447Z,100187.16
2023-03-06T12:07:22.724Z,100180.59
2023-03-06T12:09:56.981Z,100181.16
2023-03-06T12:12:47.231Z,100179.28
2023-03-06T12:15:30.318Z,100184.63
2023-03-06T12:18:13.850Z,100181.34
2023-03-06T12:20:56.928Z,100138.81
2023-03-06T12:23:38.988Z,100175.47
2023-03-06T12:26:23.915Z,100172.88
2023-03-06T12:29:11.270Z,100174.00
2023-03-06T12:31:50.186Z,100164.34
2023-03-06T12:34:34.887Z,100149.41
2023-03-06T12:37:16.407Z,100168.16
2023-03-06T12:40:00.953Z,100162.03
2023-03-06T12:42:42.320Z,100163.66
2023-03-06T12:45:23.055Z,100153.53
2023-03-06T12:47:55.556Z,100129.28
2023-03-06T12:50:27.680Z,100166.59
2023-03-06T12:52:59.882Z,100153.56
2023-03-06T12:55:27.972Z,100116.97
2023-03-06T12:57:56.805Z,100157.03
2023-03-06T13:01:03.565Z,100159.16
2023-03-06T13:03:44.776Z,100159.75
2023-03-06T13:06:51.674Z,100152.88
2023-03-06T13:09:28.643Z,100154.31
2023-03-06T13:12:18.924Z,100157.50
2023-03-06T13:14:55.774Z,100143.66
2023-03-06T13:17:29.672Z,100150.09
2023-03-06T13:20:21.813Z,100158.50
2023-03-06T13:22:49.547Z,100152.28
2023-03-06T13:25:50.342Z,100145.22
2023-03-06T13:28:27.257Z,100146.53
2023-03-06T13:30:56.126Z,100141.31
2023-03-06T13:33:53.437Z,100137.06
2023-03-06T13:36:26.515Z,100136.03
2023-03-06T13:39:01.925Z,100133.41
2023-03-06T13:42:00.660Z,100134.47
2023-03-06T13:44:51.024Z,100128.03
2023-03-06T13:48:19.504Z,100125.78
2023-03-06T13:50:43.013Z,100130.66
2023-03-06T13:53:42.388Z,100128.78
2023-03-06T13:56:37.967Z,100124.69
2023-03-06T13:59:44.205Z,100118.25
2023-03-06T14:02:35.936Z,100098.69
2023-03-06T14:05:05.141Z,100102.13
2023-03-06T14:07:34.603Z,100121.22
2023-03-06T14:10:19.873Z,100102.00
2023-03-06T14:13:03.933Z,100107.06
2023-03-06T14:15:42.168Z,100093.03
2023-03-06T14:18:19.136Z,100106.84
2023-03-06T14:20:51.677Z,100104.56
2023-03-06T14:23:32.264Z,100101.88
2023-03-06T14:26:06.392Z,100100.34
2023-03-06T14:28:35.716Z,100094.19
2023-03-06T14:31:06.289Z,100102.19
2023-03-06T14:33:44.422Z,100092.75
2023-03-06T14:36:15.923Z,100092.91
2023-03-06T14:38:47.043Z,100085.94
2023-03-06T14:41:24.541Z,100093.41
2023-03-06T14:43:52.281Z,100092.91
2023-03-06T14:46:21.848Z,100081.44
2023-03-06T14:48:51.086Z,100024.91
2023-03-06T14:51:21.511Z,100087.25
2023-03-06T14:53:51.110Z,100071.78
2023-03-06T14:56:21.125Z,100083.22
2023-03-06T14:58:56.659Z,100077.72
2023-03-06T15:01:30.406Z,100086.34
2023-03-06T15:04:01.963Z,100092.63
2023-03-06T15:06:35.038Z,100089.81
2023-03-06T15:09:07.813Z,100081.31
2023-03-06T15:11:56.164Z,100078.44
2023-03-06T15:14:31.863Z,100091.38
2023-03-06T15:17:32.046Z,100087.84
2023-03-06T15:20:02.123Z,100095.16
2023-03-06T15:22:37.349Z,100063.63
2023-03-06T15:25:20.677Z,100079.69
2023-03-06T15:27:50.781Z,100050.97
2023-03-06T15:30:27.627Z,100080.72
2023-03-06T15:33:10.862Z,100080.38
2023-03-06T15:35:40.419Z,100075.50
2023-03-06T15:38:26.208Z,100071.94
2023-03-06T15:40:58.030Z,100067.34
2023-03-06T15:43:26.980Z,100063.09
2023-03-06T15:45:59.443Z,100055.50
2023-03-06T15:48:28.489Z,100048.41
2023-03-06T15:50:58.701Z,100035.63
2023-03-06T15:53:26.547Z,100052.38
2023-03-06T15:55:54.526Z,100055.38
2023-03-06T15:58:25.064Z,100057.94
2023-03-06T16:00:52.842Z,100020.88
2023-03-06T16:03:20.911Z,100068.13
2023-03-06T16:05:48.923Z,100068.69
2023-03-06T16:08:18.023Z,100072.94
2023-03-06T16:10:47.463Z,100061.59
2023-03-06T16:13:20.344Z,100057.59
2023-03-06T16:15:50.879Z,100062.34
2023-03-06T16:18:19.723Z,100026.00
2023-03-06T16:20:48.050Z,100054.59
2023-03-06T16:23:16.421Z,100056.03
2023-03-06T16:25:49.930Z,100063.91
2023-03-06T16:28:18.130Z,100064.59
2023-03-06T16:30:46.545Z,100045.16
2023-03-06T16:33:14.965Z,100058.31
2023-03-06T16:35:44.498Z,100058.81
2023-03-06T16:38:12.334Z,100057.75
2023-03-06T16:40:42.554Z,100051.44
2023-03-06T16:43:16.025Z,100049.16
2023-03-06T16:45:44.746Z,100042.59
2023-03-06T16:48:17.213Z,100045.16
2023-03-06T16:50:45.436Z,100052.34
2023-03-06T16:53:13.180Z,100048.69
2023-03-06T16:55:41.017Z,100051.16
2023-03-06T16:58:09.995Z,100041.13
2023-03-06T17:00:39.263Z,100045.41
2023-03-06T17:03:07.408Z,100042.13
2023-03-06T17:05:35.714Z,100024.88
2023-03-06T17:08:03.802Z,100048.41
2023-03-06T17:10:32.585Z,100034.03
2023-03-06T17:13:00.366Z,100027.63
2023-03-06T17:15:28.660Z,100043.59
2023-03-06T17:17:57.871Z,99964.13
2023-03-06T17:20:25.653Z,100047.63
2023-03-06T17:22:53.790Z,100012.47
2023-03-06T17:25:21.760Z,100051.56
2023-03-06T17:27:49.602Z,100048.59
2023-03-06T17:30:17.638Z,100052.06
2023-03-06T17:32:45.641Z,100041.09
2023-03-06T17:35:15.040Z,100051.13
2023-03-06T17:37:42.887Z,100048.50
2023-03-06T17:40:11.804Z,100049.63
2023-03-06T17:42:39.761Z,100064.06
2023-03-06T17:45:09.328Z,100054.59
2023-03-06T17:47:37.132Z,100061.41
2023-03-06T17:50:05.723Z,100056.53
2023-03-06T17:52:35.182Z,100052.16
2023-03-06T17:55:03.012Z,100052.66
2023-03-06T17:57:31.342Z,100056.38
2023-03-06T17:59:59.601Z,100055.41
2023-03-06T18:02:27.578Z,100050.38
2023-03-06T18:04:57.739Z,100051.34
2023-03-06T18:07:26.670Z,100042.94
2023-03-06T18:09:56.545Z,100041.34
2023-03-06T18:12:24.649Z,100042.84
2023-03-06T18:14:52.478Z,100044.59
2023-03-06T18:17:20.284Z,100025.31
2023-03-06T18:19:48.055Z,100031.16
2023-03-06T18:22:15.844Z,100026.13
2023-03-06T18:24:43.654Z,100026.97
2023-03-06T18:27:12.825Z,100019.34
2023-03-06T18:29:40.871Z,100021.91
2023-03-06T18:32:10.758Z,100016.00
2023-03-06T18:34:38.892Z,100013.44
2023-03-06T18:37:07.063Z,99964.97
2023-03-06T18:39:35.153Z,100008.97
2023-03-06T18:42:03.165Z,99987.88
2023-03-06T18:44:33.697Z,99995.50
2023-03-06T18:47:01.678Z,99997.25
2023-03-06T18:49:29.677Z,99993.59
2023-03-06T18:51:58.121Z,99979.13
2023-03-06T18:54:28.539Z,99982.56
2023-03-06T18:56:56.340Z,99987.00
2023-03-06T18:59:24.318Z,99988.50
2023-03-06T19:01:57.535Z,99981.56
2023-03-06T19:04:25.537Z,99971.31
2023-03-06T19:06:54.727Z,99964.84
2023-03-06T19:09:23.052Z,99967.28
2023-03-06T19:11:53.735Z,99962.91
2023-03-06T19:14:22.730Z,99962.00
2023-03-06T19:16:50.628Z,99969.75
2023-03-06T19:19:20.425Z,99955.28
2023-03-06T19:21:48.286Z,99950.13
2023-03-06T19:24:16.477Z,99953.09
2023-03-06T19:26:45.001Z,99956.38
2023-03-06T19:29:12.756Z,99859.50
2023-03-06T19:31:40.649Z,99944.38
2023-03-06T19:34:08.920Z,99928.97
2023-03-06T19:36:40.581Z,99917.06
2023-03-06T19:39:09.570Z,99921.41
2023-03-06T19:41:37.537Z,99920.25
2023-03-06T19:44:06.286Z,99914.34
2023-03-06T19:46:36.163Z,99915.97
2023-03-06T19:49:09.688Z,99907.28
2023-03-06T19:51:38.961Z,99888.91
2023-03-06T19:54:06.815Z,99900.63
2023-03-06T19:56:36.187Z,99863.47
2023-03-06T19:59:03.927Z,99885.25
2023-03-06T20:01:33.849Z,99880.00
2023-03-06T20:04:01.604Z,99871.47
2023-03-06T20:06:33.429Z,99867.34
2023-03-06T20:09:05.610Z,99852.28
2023-03-06T20:11:35.584Z,99863.34
2023-03-06T20:14:05.997Z,99873.78
2023-03-06T20:16:34.876Z,99832.72
2023-03-06T20:19:03.246Z,99848.03
2023-03-06T20:21:33.659Z,99855.81
2023-03-06T20:24:03.110Z,99840.66
2023-03-06T20:26:30.986Z,99822.13
2023-03-06T20:28:59.244Z,99835.63
2023-03-06T20:31:29.359Z,99831.34
2023-03-06T20:33:59.489Z,99829.72
2023-03-06T20:36:29.056Z,99807.56
2023-03-06T20:38:57.018Z,99826.78
2023-03-06T20:41:28.568Z,99764.28
2023-03-06T20:43:56.795Z,99757.34
2023-03-06T20:46:25.130Z,99811.66
2023-03-06T20:48:54.518Z,99782.78
2023-03-06T20:51:27.829Z,99799.81
2023-03-06T20:53:56.639Z,99746.38
2023-03-06T20:56:28.144Z,99776.00
2023-03-06T20:58:56.260Z,99784.44
2023-03-06T21:01:26.249Z,99765.75
2023-03-06T21:03:54.694Z,99770.06
2023-03-06T21:06:22.410Z,99761.56
2023-03-06T21:08:50.566Z,99768.38
2023-03-06T21:11:19.003Z,99760.44
2023-03-06T21:13:48.487Z,99757.31
2023-03-06T21:16:18.280Z,99756.25
2023-03-06T21:18:46.672Z,99741.81
2023-03-06T21:21:16.398Z,99735.75
2023-03-06T21:23:44.110Z,99722.06
2023-03-06T21:26:14.965Z,99724.75
2023-03-06T21:28:43.076Z,99721.31
2023-03-06T21:31:14.161Z,99722.81
2023-03-06T21:33:42.576Z,99712.59
2023-03-06T21:36:11.699Z,99700.81
2023-03-06T21:38:40.178Z,99680.69
2023-03-06T21:41:09.992Z,99717.75
2023-03-06T21:43:37.834Z,99697.78
2023-03-06T21:46:06.376Z,99685.50
2023-03-06T21:48:35.741Z,99679.91
2023-03-06T21:51:08.161Z,99667.78
2023-03-06T21:53:36.691Z,99664.06
2023-03-06T21:56:05.548Z,99678.91
2023-03-06T21:58:33.418Z,99661.91
2023-03-06T22:01:01.414Z,99659.00
2023-03-06T22:03:29.629Z,99651.41
2023-03-06T22:06:08.495Z,99648.63
2023-03-06T22:08:36.245Z,99635.66
2023-03-06T22:11:07.960Z,99621.34
2023-03-06T22:13:35.768Z,99632.06
2023-03-06T22:16:03.491Z,99616.22
2023-03-06T22:18:31.824Z,99594.59
2023-03-06T22:21:01.951Z,99577.22
2023-03-06T22:23:29.831Z,99586.59
2023-03-06T22:26:02.605Z,99592.03
2023-03-06T22:28:30.565Z,99590.00
2023-03-06T22:31:05.193Z,99594.03
2023-03-06T22:33:33.004Z,99595.41
2023-03-06T22:36:07.215Z,99582.78
2023-03-06T22:38:36.595Z,99559.06
2023-03-06T22:41:05.542Z,99572.78
2023-03-06T22:43:34.217Z,99569.22
2023-03-06T22:46:03.130Z,99567.22
2023-03-06T22:48:31.185Z,99545.94
2023-03-06T22:51:04.663Z,99551.38
2023-03-06T22:53:32.626Z,99529.53
2023-03-06T22:56:00.858Z,99540.25
2023-03-06T22:58:34.388Z,99523.16
2023-03-06T23:01:06.490Z,99507.38
2023-03-06T23:03:34.311Z,99510.44
2023-03-06T23:06:06.959Z,99509.50
2023-03-06T23:08:34.762Z,99519.56
2023-03-06T23:11:02.945Z,99494.41
2023-03-06T23:13:31.123Z,99496.13
2023-03-06T23:16:02.185Z,99481.22
2023-03-06T23:18:30.007Z,99439.84
2023-03-06T23:20:59.055Z,99467.81
2023-03-06T23:23:28.143Z,99458.78
2023-03-06T23:26:00.139Z,99457.03
2023-03-06T23:28:28.459Z,99437.31
2023-03-06T23:30:56.191Z,99442.75
2023-03-06T23:33:24.159Z,99439.75
2023-03-06T23:35:52.184Z,99435.31
2023-03-06T23:38:22.036Z,99368.75
2023-03-06T23:40:51.340Z,99415.09
2023-03-06T23:43:19.003Z,99428.63
2023-03-06T23:45:53.636Z,99416.88
2023-03-06T23:48:21.602Z,99420.34
2023-03-06T23:50:49.535Z,99386.69
2023-03-06T23:53:18.255Z,99405.94
2023-03-06T23:55:49.265Z,99392.00
2023-03-06T23:58:19.929Z,99390.41
